Time;durP1;ratioP1;P1;durP2;ratioP2;P2;SDS_P1;SDS_P2;PMS_P1;PMS_P2;Temp;Humidity;BMP_temperature;BMP_pressure;BME280_temperature;BME280_humidity;BME280_pressure;Samples;Min_cycle;Max_cycle;Signal;HPM_P1;HPM_P2
2023/04/07 00:01:45;;;;;;;15.82;6.57;;;;;;;;;;5008006;28;93764;-72
2023/04/07 00:04:11;;;;;;;15.68;7.97;;;;;;;;;;4996279;28;92377;-72
2023/04/07 00:06:39;;;;;;;17.63;7.40;;;;;;;;;;4994919;28;94777;-72
2023/04/07 00:09:05;;;;;;;16.60;7.28;;;;;;;;;;4995296;28;93404;-72
2023/04/07 00:11:32;;;;;;;13.65;5.72;;;;;;;;;;5002625;28;92466;-72
2023/04/07 00:13:58;;;;;;;15.18;6.25;;;;;;;;;;5016141;28;93153;-72
2023/04/07 00:16:24;;;;;;;14.50;6.47;;;;;;;;;;4996381;28;93403;-72
2023/04/07 00:18:51;;;;;;;18.35;6.32;;;;;;;;;;4996059;28;92533;-72
2023/04/07 00:21:17;;;;;;;25.13;6.93;;;;;;;;;;4996220;28;93091;-72
2023/04/07 00:23:43;;;;;;;11.52;6.03;;;;;;;;;;4999580;28;92631;-72
2023/04/07 00:26:10;;;;;;;12.10;6.75;;;;;;;;;;5000870;28;93594;-72
2023/04/07 00:28:36;;;;;;;13.52;6.95;;;;;;;;;;4996861;28;93662;-72
2023/04/07 00:31:03;;;;;;;14.52;7.28;;;;;;;;;;4987142;28;95751;-72
2023/04/07 00:33:29;;;;;;;14.70;7.30;;;;;;;;;;5014142;28;95532;-73
2023/04/07 00:35:57;;;;;;;15.32;7.60;;;;;;;;;;5010033;28;93587;-72
2023/04/07 00:38:23;;;;;;;14.50;7.75;;;;;;;;;;4999197;28;92572;-72
2023/04/07 00:40:56;;;;;;;16.27;7.47;;;;;;;;;;5000453;28;94816;-73
2023/04/07 00:43:22;;;;;;;17.52;8.05;;;;;;;;;;5007063;28;93447;-73
2023/04/07 00:45:48;;;;;;;16.25;8.52;;;;;;;;;;5010576;28;92500;-72
2023/04/07 00:48:15;;;;;;;16.50;8.63;;;;;;;;;;4994398;28;92654;-72
2023/04/07 00:50:41;;;;;;;19.50;9.50;;;;;;;;;;4993400;28;92619;-72
2023/04/07 00:53:07;;;;;;;17.13;9.90;;;;;;;;;;4999472;28;93188;-72
2023/04/07 00:55:34;;;;;;;16.00;9.23;;;;;;;;;;5009892;28;98804;-72
2023/04/07 00:58:00;;;;;;;16.20;9.45;;;;;;;;;;5013754;28;92381;-72
2023/04/07 01:00:26;;;;;;;20.38;8.95;;;;;;;;;;4997441;28;94818;-72
2023/04/07 01:03:05;;;;;;;12.52;8.05;;;;;;;;;;4995002;28;93652;-72
2023/04/07 01:05:41;;;;;;;14.40;8.73;;;;;;;;;;4997843;28;92596;-72
2023/04/07 01:08:13;;;;;;;18.58;8.73;;;;;;;;;;4994506;28;93610;-72
2023/04/07 01:10:51;;;;;;;17.45;8.63;;;;;;;;;;4995195;28;92506;-72
2023/04/07 01:13:31;;;;;;;19.63;8.35;;;;;;;;;;4996586;28;93535;-72
2023/04/07 01:15:59;;;;;;;19.42;8.35;;;;;;;;;;5013204;28;93690;-72
2023/04/07 01:18:31;;;;;;;18.30;8.48;;;;;;;;;;4992644;28;92529;-71
2023/04/07 01:21:05;;;;;;;15.77;8.38;;;;;;;;;;4996031;28;95657;-72
2023/04/07 01:23:50;;;;;;;18.40;8.13;;;;;;;;;;5004700;28;93709;-72
2023/04/07 01:26:27;;;;;;;20.35;9.40;;;;;;;;;;5007542;28;93827;-72
2023/04/07 01:29:02;;;;;;;20.13;7.97;;;;;;;;;;5015610;28;93538;-71
2023/04/07 01:31:29;;;;;;;18.52;9.07;;;;;;;;;;5006216;28;92622;-71
2023/04/07 01:33:58;;;;;;;18.90;9.27;;;;;;;;;;4993874;28;93182;-72
2023/04/07 01:36:27;;;;;;;21.35;9.20;;;;;;;;;;5010275;28;93380;-71
2023/04/07 01:38:53;;;;;;;15.98;8.90;;;;;;;;;;5008880;28;91877;-72
2023/04/07 01:41:20;;;;;;;16.73;9.27;;;;;;;;;;4991509;28;92462;-71
2023/04/07 01:43:47;;;;;;;19.60;9.35;;;;;;;;;;5008530;28;94089;-72
2023/04/07 01:46:14;;;;;;;16.90;9.63;;;;;;;;;;4995565;28;94772;-72
2023/04/07 01:48:41;;;;;;;15.48;9.68;;;;;;;;;;4992867;28;97267;-72
2023/04/07 01:51:10;;;;;;;16.92;9.05;;;;;;;;;;5003233;28;95574;-71
2023/04/07 01:53:38;;;;;;;24.17;9.98;;;;;;;;;;4997376;28;94604;-72
2023/04/07 01:56:04;;;;;;;21.60;10.80;;;;;;;;;;4993747;28;93431;-72
2023/04/07 01:58:30;;;;;;;30.98;12.63;;;;;;;;;;5010253;28;92453;-71
2023/04/07 02:00:57;;;;;;;23.88;13.50;;;;;;;;;;4996486;28;93219;-73
2023/04/07 02:03:28;;;;;;;27.90;12.95;;;;;;;;;;4995353;28;92850;-72
2023/04/07 02:05:56;;;;;;;28.33;13.88;;;;;;;;;;5005296;28;92859;-72
2023/04/07 02:08:24;;;;;;;29.15;12.85;;;;;;;;;;5008260;28;94220;-72
2023/04/07 02:10:51;;;;;;;25.20;12.65;;;;;;;;;;4991712;28;95839;-72
2023/04/07 02:13:18;;;;;;;24.65;12.43;;;;;;;;;;4996537;28;92508;-72
2023/04/07 02:15:45;;;;;;;26.50;12.50;;;;;;;;;;4973830;28;93457;-72
2023/04/07 02:18:13;;;;;;;26.23;12.25;;;;;;;;;;5004839;28;92640;-71
2023/04/07 02:20:41;;;;;;;20.52;11.50;;;;;;;;;;5011377;28;93201;-72
2023/04/07 02:23:07;;;;;;;21.23;10.93;;;;;;;;;;4993261;28;93489;-72
2023/04/07 02:25:36;;;;;;;30.45;11.13;;;;;;;;;;4995984;28;92439;-73
2023/04/07 02:28:03;;;;;;;27.02;10.43;;;;;;;;;;4994503;28;93248;-72
2023/04/07 02:30:30;;;;;;;28.45;10.93;;;;;;;;;;4999005;28;93323;-71
2023/04/07 02:32:56;;;;;;;27.42;10.65;;;;;;;;;;4994158;28;92979;-72
2023/04/07 02:35:23;;;;;;;23.80;10.52;;;;;;;;;;5011386;28;95131;-72
2023/04/07 02:37:49;;;;;;;29.33;10.70;;;;;;;;;;5006481;28;93706;-72
2023/04/07 02:40:15;;;;;;;24.48;11.38;;;;;;;;;;5003725;28;93353;-72
2023/04/07 02:42:42;;;;;;;25.00;10.98;;;;;;;;;;5004280;28;93967;-71
2023/04/07 02:45:08;;;;;;;28.73;10.73;;;;;;;;;;4994385;28;92462;-72
2023/04/07 02:47:35;;;;;;;26.98;10.40;;;;;;;;;;5000923;28;93612;-72
2023/04/07 02:50:02;;;;;;;20.60;9.90;;;;;;;;;;5011295;28;93578;-71
2023/04/07 02:52:28;;;;;;;37.78;10.27;;;;;;;;;;4999728;28;92618;-72
2023/04/07 02:54:54;;;;;;;26.75;10.57;;;;;;;;;;5007064;28;92462;-72
2023/04/07 02:57:21;;;;;;;24.85;10.18;;;;;;;;;;5008558;28;93649;-72
2023/04/07 02:59:47;;;;;;;29.77;11.07;;;;;;;;;;4995819;28;94770;-72
2023/04/07 03:02:14;;;;;;;27.00;10.57;;;;;;;;;;5002745;28;94088;-71
2023/04/07 03:04:40;;;;;;;36.47;10.75;;;;;;;;;;5000302;28;92718;-71
2023/04/07 03:07:07;;;;;;;33.50;10.25;;;;;;;;;;5008727;28;93701;-72
2023/04/07 03:09:33;;;;;;;37.15;10.68;;;;;;;;;;4996518;28;93483;-73
2023/04/07 03:12:01;;;;;;;27.17;10.30;;;;;;;;;;5009462;28;92541;-72
2023/04/07 03:14:27;;;;;;;42.40;11.43;;;;;;;;;;5010727;28;93061;-72
2023/04/07 03:16:53;;;;;;;27.10;11.35;;;;;;;;;;5009335;28;93308;-72
2023/04/07 03:19:20;;;;;;;27.70;9.25;;;;;;;;;;4994054;28;92524;-72
2023/04/07 03:21:46;;;;;;;27.45;9.48;;;;;;;;;;4995725;28;93533;-72
2023/04/07 03:24:13;;;;;;;33.47;10.70;;;;;;;;;;4995063;28;95189;-71
2023/04/07 03:26:39;;;;;;;32.08;10.30;;;;;;;;;;4998955;28;96018;-73
2023/04/07 03:29:05;;;;;;;32.35;9.68;;;;;;;;;;5012792;28;93507;-71
2023/04/07 03:31:32;;;;;;;27.20;9.00;;;;;;;;;;5014811;28;92878;-72
2023/04/07 03:33:58;;;;;;;34.38;9.15;;;;;;;;;;5012804;28;93065;-71
2023/04/07 03:36:26;;;;;;;25.38;8.05;;;;;;;;;;5005888;28;92744;-72
2023/04/07 03:38:53;;;;;;;21.60;8.43;;;;;;;;;;5009409;28;92548;-71
2023/04/07 03:41:19;;;;;;;32.20;7.95;;;;;;;;;;5004130;28;92678;-72
2023/04/07 03:43:46;;;;;;;25.63;7.95;;;;;;;;;;5014438;28;92384;-72
2023/04/07 03:46:12;;;;;;;31.13;9.30;;;;;;;;;;4996415;28;96664;-71
2023/04/07 03:48:39;;;;;;;23.35;7.47;;;;;;;;;;4992765;28;96969;-72
2023/04/07 03:51:06;;;;;;;32.50;8.30;;;;;;;;;;4994407;28;93461;-72
2023/04/07 03:53:32;;;;;;;28.83;8.20;;;;;;;;;;5005947;28;93401;-72
2023/04/07 03:55:59;;;;;;;30.27;8.35;;;;;;;;;;5009361;28;94657;-72
2023/04/07 03:58:26;;;;;;;31.52;7.72;;;;;;;;;;5001256;28;92873;-72
2023/04/07 04:00:52;;;;;;;28.63;7.85;;;;;;;;;;4999166;28;93203;-72
2023/04/07 04:03:18;;;;;;;29.27;7.85;;;;;;;;;;5014509;28;92506;-72
2023/04/07 04:05:45;;;;;;;25.83;8.65;;;;;;;;;;4997682;28;93327;-72
2023/04/07 04:08:11;;;;;;;24.58;7.95;;;;;;;;;;4995178;28;93503;-72
2023/04/07 04:10:38;;;;;;;25.77;8.48;;;;;;;;;;5013379;28;92487;-71
2023/04/07 04:13:06;;;;;;;32.42;8.35;;;;;;;;;;5011846;28;95019;-72
2023/04/07 04:15:33;;;;;;;25.38;8.07;;;;;;;;;;4998724;28;93481;-72
2023/04/07 04:18:00;;;;;;;21.10;7.55;;;;;;;;;;4996268;28;92492;-72
2023/04/07 04:20:26;;;;;;;26.30;8.85;;;;;;;;;;5005896;28;93182;-72
2023/04/07 04:22:52;;;;;;;24.70;8.25;;;;;;;;;;4997212;28;93436;-72
2023/04/07 04:25:19;;;;;;;31.35;9.07;;;;;;;;;;5000557;28;93528;-72
2023/04/07 04:27:45;;;;;;;24.58;8.25;;;;;;;;;;5003232;28;94730;-72
2023/04/07 04:30:11;;;;;;;24.77;8.40;;;;;;;;;;5009055;28;91878;-72
2023/04/07 04:32:38;;;;;;;44.05;11.00;;;;;;;;;;5012090;28;93000;-72
2023/04/07 04:35:05;;;;;;;26.95;8.23;;;;;;;;;;5006260;28;93409;-71
2023/04/07 04:37:31;;;;;;;26.15;8.38;;;;;;;;;;4991764;28;95065;-72
2023/04/07 04:39:57;;;;;;;30.02;9.05;;;;;;;;;;5008790;28;95694;-72
2023/04/07 04:42:25;;;;;;;31.52;10.00;;;;;;;;;;4996568;28;93338;-72
2023/04/07 04:44:52;;;;;;;33.13;10.10;;;;;;;;;;4996563;28;92458;-71
2023/04/07 04:47:18;;;;;;;23.88;9.30;;;;;;;;;;4997014;28;93581;-72
2023/04/07 04:49:44;;;;;;;30.30;9.05;;;;;;;;;;4999665;28;92557;-72
2023/04/07 04:52:11;;;;;;;21.95;9.10;;;;;;;;;;4997527;28;93880;-73
2023/04/07 04:54:37;;;;;;;24.10;8.93;;;;;;;;;;4979254;28;92798;-72
2023/04/07 04:57:03;;;;;;;23.17;9.30;;;;;;;;;;5003092;28;92808;-72
2023/04/07 04:59:30;;;;;;;32.33;9.85;;;;;;;;;;4998364;28;94213;-72
2023/04/07 05:01:56;;;;;;;22.13;9.15;;;;;;;;;;4996566;28;95959;-71
2023/04/07 05:04:22;;;;;;;30.65;9.63;;;;;;;;;;5001668;28;92523;-72
2023/04/07 05:06:49;;;;;;;23.80;8.27;;;;;;;;;;5000207;28;93225;-72
2023/04/07 05:09:16;;;;;;;28.23;8.45;;;;;;;;;;5010550;28;92517;-72
2023/04/07 05:11:42;;;;;;;23.27;8.02;;;;;;;;;;4999184;28;93196;-72
2023/04/07 05:14:08;;;;;;;22.23;7.65;;;;;;;;;;5007329;28;93439;-72
2023/04/07 05:16:35;;;;;;;21.20;7.53;;;;;;;;;;5002900;28;92510;-72
2023/04/07 05:19:01;;;;;;;21.90;7.50;;;;;;;;;;4999483;28;93561;-71
2023/04/07 05:21:28;;;;;;;18.38;7.40;;;;;;;;;;4995994;28;92760;-72
2023/04/07 05:23:54;;;;;;;17.38;6.07;;;;;;;;;;4995007;28;93931;-72
2023/04/07 05:26:21;;;;;;;16.98;6.40;;;;;;;;;;4998588;28;95325;-72
2023/04/07 05:28:47;;;;;;;14.50;6.40;;;;;;;;;;5002263;28;92706;-72
2023/04/07 05:31:13;;;;;;;17.13;6.68;;;;;;;;;;5002372;28;93088;-72
2023/04/07 05:33:40;;;;;;;15.13;6.63;;;;;;;;;;5005854;28;93287;-72
2023/04/07 05:36:06;;;;;;;15.07;6.47;;;;;;;;;;5001151;28;92511;-72
2023/04/07 05:38:33;;;;;;;15.70;7.15;;;;;;;;;;5006729;28;93496;-72
2023/04/07 05:40:59;;;;;;;18.17;7.68;;;;;;;;;;5010760;28;94730;-72
2023/04/07 05:43:25;;;;;;;24.52;7.93;;;;;;;;;;5008894;28;91753;-72
2023/04/07 05:45:51;;;;;;;17.23;7.32;;;;;;;;;;5003222;28;92762;-72
2023/04/07 05:48:18;;;;;;;13.68;6.78;;;;;;;;;;5004095;28;93407;-72
2023/04/07 05:50:44;;;;;;;16.00;6.38;;;;;;;;;;4992779;28;95771;-72
2023/04/07 05:53:11;;;;;;;19.95;6.90;;;;;;;;;;5009891;28;93533;-72
2023/04/07 05:55:37;;;;;;;17.25;6.32;;;;;;;;;;4992619;28;92535;-72
2023/04/07 05:58:04;;;;;;;22.77;6.95;;;;;;;;;;4998380;28;94447;-72
2023/04/07 06:00:30;;;;;;;21.30;6.88;;;;;;;;;;4994576;28;93647;-72
2023/04/07 06:02:56;;;;;;;17.77;6.63;;;;;;;;;;5009152;28;92445;-72
2023/04/07 06:05:23;;;;;;;22.52;6.47;;;;;;;;;;4994948;28;94213;-72
2023/04/07 06:07:49;;;;;;;22.58;7.50;;;;;;;;;;4995849;28;93560;-72
2023/04/07 06:10:16;;;;;;;18.13;6.47;;;;;;;;;;4997707;28;92506;-72
2023/04/07 06:12:42;;;;;;;23.00;6.57;;;;;;;;;;4995126;28;93435;-71
2023/04/07 06:15:08;;;;;;;20.65;6.25;;;;;;;;;;5002767;28;94763;-72
2023/04/07 06:17:35;;;;;;;26.23;7.35;;;;;;;;;;5005944;28;99156;-71
2023/04/07 06:20:01;;;;;;;19.77;7.80;;;;;;;;;;5015894;28;93627;-72
2023/04/07 06:22:27;;;;;;;22.63;6.75;;;;;;;;;;4999651;28;92538;-72
2023/04/07 06:24:54;;;;;;;25.30;7.43;;;;;;;;;;4995706;28;92806;-73
2023/04/07 06:27:20;;;;;;;24.88;6.85;;;;;;;;;;4995823;28;93207;-71
2023/04/07 06:29:47;;;;;;;17.42;6.53;;;;;;;;;;5006362;28;93904;-71
2023/04/07 06:32:13;;;;;;;16.60;6.20;;;;;;;;;;5025516;28;94221;-73
2023/04/07 06:34:39;;;;;;;16.17;6.22;;;;;;;;;;5022867;28;92475;-73
2023/04/07 06:37:06;;;;;;;16.88;6.63;;;;;;;;;;5015684;28;94166;-74
2023/04/07 06:39:33;;;;;;;17.00;6.05;;;;;;;;;;5022833;28;94728;-74
2023/04/07 06:42:00;;;;;;;21.05;6.10;;;;;;;;;;5020956;28;92943;-74
2023/04/07 06:44:26;;;;;;;20.25;7.07;;;;;;;;;;5032438;28;92635;-73
2023/04/07 06:46:54;;;;;;;20.13;7.93;;;;;;;;;;5015196;28;92263;-73
2023/04/07 06:49:20;;;;;;;21.75;7.25;;;;;;;;;;5013399;28;92414;-73
2023/04/07 06:51:47;;;;;;;19.58;7.10;;;;;;;;;;5018576;28;92341;-76
2023/04/07 06:54:14;;;;;;;15.75;7.25;;;;;;;;;;5025765;28;92344;-74
2023/04/07 06:56:41;;;;;;;20.25;7.57;;;;;;;;;;5018897;28;92008;-76
2023/04/07 06:59:07;;;;;;;24.05;8.18;;;;;;;;;;5014793;28;93571;-75
2023/04/07 07:01:33;;;;;;;18.63;8.00;;;;;;;;;;5013636;28;92494;-75
2023/04/07 07:04:00;;;;;;;28.75;8.95;;;;;;;;;;5008077;28;94943;-74
2023/04/07 07:06:26;;;;;;;21.75;8.60;;;;;;;;;;4993670;28;93657;-74
2023/04/07 07:08:53;;;;;;;18.10;7.57;;;;;;;;;;4998554;28;92453;-74
2023/04/07 07:11:19;;;;;;;21.17;7.78;;;;;;;;;;5006742;28;93427;-76
2023/04/07 07:13:46;;;;;;;26.42;8.65;;;;;;;;;;4999518;28;93194;-75
2023/04/07 07:16:13;;;;;;;22.67;7.30;;;;;;;;;;5017015;28;92498;-73
2023/04/07 07:18:39;;;;;;;21.23;8.07;;;;;;;;;;4991215;28;92503;-75
2023/04/07 07:21:07;;;;;;;19.25;7.20;;;;;;;;;;4996300;28;91702;-73
2023/04/07 07:23:33;;;;;;;19.15;7.50;;;;;;;;;;4995200;28;92791;-73
2023/04/07 07:25:59;;;;;;;22.13;7.50;;;;;;;;;;4994941;28;93653;-73
2023/04/07 07:28:27;;;;;;;17.65;6.50;;;;;;;;;;4993454;28;94997;-73
2023/04/07 07:30:54;;;;;;;21.40;7.53;;;;;;;;;;4994567;28;95877;-73
2023/04/07 07:33:21;;;;;;;19.88;6.65;;;;;;;;;;5007640;28;93580;-73
2023/04/07 07:35:48;;;;;;;18.40;6.70;;;;;;;;;;5016556;28;92595;-73
2023/04/07 07:38:14;;;;;;;20.98;6.68;;;;;;;;;;5001511;28;95889;-74
2023/04/07 07:40:41;;;;;;;15.65;6.15;;;;;;;;;;5002550;28;92640;-72
2023/04/07 07:43:07;;;;;;;20.23;6.45;;;;;;;;;;5003711;28;93315;-72
2023/04/07 07:45:33;;;;;;;18.45;6.30;;;;;;;;;;5007117;28;95449;-73
2023/04/07 07:47:59;;;;;;;22.25;7.50;;;;;;;;;;5007187;28;92572;-72
2023/04/07 07:50:26;;;;;;;23.83;7.07;;;;;;;;;;5005510;28;94062;-72
2023/04/07 07:52:52;;;;;;;17.77;6.13;;;;;;;;;;5015154;28;95776;-71
2023/04/07 07:55:19;;;;;;;11.15;6.28;;;;;;;;;;5016619;28;92384;-72
2023/04/07 07:57:45;;;;;;;31.17;6.80;;;;;;;;;;5011315;28;93659;-72
2023/04/07 08:00:12;;;;;;;19.80;6.65;;;;;;;;;;5006050;28;92390;-72
2023/04/07 08:02:39;;;;;;;15.80;6.80;;;;;;;;;;4996304;28;93298;-72
2023/04/07 08:05:05;;;;;;;17.77;5.50;;;;;;;;;;4996636;28;93462;-72
2023/04/07 08:07:32;;;;;;;22.50;5.88;;;;;;;;;;4996692;28;92772;-71
2023/04/07 08:09:58;;;;;;;19.90;5.80;;;;;;;;;;4996742;28;94703;-72
2023/04/07 08:12:25;;;;;;;16.95;5.28;;;;;;;;;;4994945;28;94854;-72
2023/04/07 08:14:51;;;;;;;17.70;4.85;;;;;;;;;;4991759;28;92676;-72
2023/04/07 08:17:18;;;;;;;16.55;5.05;;;;;;;;;;5006443;28;95148;-72
2023/04/07 08:19:44;;;;;;;17.42;5.10;;;;;;;;;;5016759;28;93404;-72
2023/04/07 08:22:11;;;;;;;21.42;5.88;;;;;;;;;;5002606;28;93072;-73
2023/04/07 08:24:37;;;;;;;17.38;5.05;;;;;;;;;;5007868;28;93200;-73
2023/04/07 08:27:03;;;;;;;19.98;5.13;;;;;;;;;;5003519;28;92424;-72
2023/04/07 08:29:30;;;;;;;12.35;4.72;;;;;;;;;;4999556;28;94536;-73
2023/04/07 08:31:57;;;;;;;18.85;3.75;;;;;;;;;;5015831;28;93719;-72
2023/04/07 08:34:24;;;;;;;16.70;4.63;;;;;;;;;;5014533;28;91977;-72
2023/04/07 08:36:50;;;;;;;13.35;3.40;;;;;;;;;;5012616;28;94086;-72
2023/04/07 08:39:16;;;;;;;18.40;4.32;;;;;;;;;;4995335;28;92429;-72
2023/04/07 08:41:44;;;;;;;11.95;3.30;;;;;;;;;;4997404;28;94948;-73
2023/04/07 08:44:10;;;;;;;13.68;3.20;;;;;;;;;;4996084;28;95068;-72
2023/04/07 08:46:37;;;;;;;13.50;3.22;;;;;;;;;;4998727;28;92566;-74
2023/04/07 08:49:06;;;;;;;9.55;3.90;;;;;;;;;;5005212;28;93514;-73
2023/04/07 08:51:33;;;;;;;13.27;4.38;;;;;;;;;;4995676;28;94819;-73
2023/04/07 08:54:10;;;;;;;17.38;3.45;;;;;;;;;;4995778;28;92486;-72
2023/04/07 08:56:39;;;;;;;22.65;2.80;;;;;;;;;;5000928;28;93217;-72
2023/04/07 08:59:06;;;;;;;14.70;3.35;;;;;;;;;;5001435;28;92676;-71
2023/04/07 09:01:33;;;;;;;17.13;3.05;;;;;;;;;;4994381;28;92650;-72
2023/04/07 09:04:01;;;;;;;21.65;3.45;;;;;;;;;;4998492;28;93333;-69
2023/04/07 09:06:31;;;;;;;13.63;3.33;;;;;;;;;;4999191;28;94993;-73
2023/04/07 09:08:57;;;;;;;18.45;4.20;;;;;;;;;;5008475;28;96522;-73
2023/04/07 09:11:25;;;;;;;23.75;4.38;;;;;;;;;;5006252;28;94446;-73
2023/04/07 09:13:51;;;;;;;19.38;3.92;;;;;;;;;;5007008;28;92954;-75
2023/04/07 09:16:18;;;;;;;17.38;3.50;;;;;;;;;;5007720;28;94456;-72
2023/04/07 09:18:44;;;;;;;13.80;3.47;;;;;;;;;;4999654;28;93633;-71
2023/04/07 09:21:11;;;;;;;13.70;3.85;;;;;;;;;;4999796;28;92444;-74
2023/04/07 09:23:40;;;;;;;7.10;2.70;;;;;;;;;;4997503;28;93372;-74
2023/04/07 09:26:23;;;;;;;12.18;3.25;;;;;;;;;;4997856;28;92489;-73
2023/04/07 09:28:51;;;;;;;18.85;3.67;;;;;;;;;;4992449;28;93404;-73
2023/04/07 09:31:20;;;;;;;18.77;3.78;;;;;;;;;;5011501;28;95876;-74
2023/04/07 09:33:47;;;;;;;17.13;3.05;;;;;;;;;;5012077;28;92591;-72
2023/04/07 09:36:13;;;;;;;15.05;3.45;;;;;;;;;;5013592;28;92945;-73
2023/04/07 09:38:40;;;;;;;12.60;2.97;;;;;;;;;;5014549;28;93966;-73
2023/04/07 09:41:10;;;;;;;12.57;3.15;;;;;;;;;;5012553;28;93849;-73
2023/04/07 09:43:37;;;;;;;15.23;4.10;;;;;;;;;;5013258;28;92981;-73
2023/04/07 09:46:07;;;;;;;9.05;2.83;;;;;;;;;;5016730;28;93325;-73
2023/04/07 09:48:34;;;;;;;10.37;2.57;;;;;;;;;;4988771;28;95613;-74
2023/04/07 09:51:06;;;;;;;11.02;2.85;;;;;;;;;;4995053;28;93862;-73
2023/04/07 09:53:46;;;;;;;13.80;3.10;;;;;;;;;;4988767;28;92490;-74
2023/04/07 09:56:16;;;;;;;14.27;2.40;;;;;;;;;;4995144;28;95089;-73
2023/04/07 09:58:44;;;;;;;14.25;2.58;;;;;;;;;;5004999;28;94543;-73
2023/04/07 10:01:11;;;;;;;8.90;2.63;;;;;;;;;;5005045;28;92494;-73
2023/04/07 10:03:38;;;;;;;6.55;2.30;;;;;;;;;;5013675;28;92919;-73
2023/04/07 10:06:05;;;;;;;8.10;2.20;;;;;;;;;;5011590;28;93362;-72
2023/04/07 10:08:33;;;;;;;10.20;3.95;;;;;;;;;;5010775;28;92761;-75
2023/04/07 10:11:02;;;;;;;8.18;2.67;;;;;;;;;;5014180;28;93413;-73
2023/04/07 10:13:29;;;;;;;12.10;2.42;;;;;;;;;;5013422;28;91979;-73
2023/04/07 10:16:01;;;;;;;22.65;7.57;;;;;;;;;;5012281;28;93107;-72
2023/04/07 10:18:30;;;;;;;6.57;2.50;;;;;;;;;;5002704;28;94813;-75
2023/04/07 10:21:00;;;;;;;8.32;2.50;;;;;;;;;;5008825;28;94861;-74
2023/04/07 10:23:32;;;;;;;18.83;3.00;;;;;;;;;;4994421;28;95532;-73
2023/04/07 10:26:00;;;;;;;16.13;2.60;;;;;;;;;;5002479;28;93614;-73
2023/04/07 10:28:27;;;;;;;11.85;3.17;;;;;;;;;;4995622;28;92536;-73
2023/04/07 10:30:53;;;;;;;10.77;2.35;;;;;;;;;;4977668;28;93172;-72
2023/04/07 10:33:38;;;;;;;8.13;2.50;;;;;;;;;;4974522;28;92437;-72
2023/04/07 10:36:06;;;;;;;11.70;2.38;;;;;;;;;;4996794;28;93325;-71
2023/04/07 10:38:32;;;;;;;7.35;2.55;;;;;;;;;;4993995;28;92983;-73
2023/04/07 10:40:58;;;;;;;12.82;2.25;;;;;;;;;;4994265;28;92603;-72
2023/04/07 10:43:43;;;;;;;9.68;2.38;;;;;;;;;;5006650;28;92894;-72
2023/04/07 10:46:09;;;;;;;7.88;2.58;;;;;;;;;;5008739;28;95947;-72
2023/04/07 10:48:36;;;;;;;6.25;2.08;;;;;;;;;;5008917;28;92630;-73
2023/04/07 10:51:06;;;;;;;10.85;2.65;;;;;;;;;;4990720;28;93334;-73
2023/04/07 10:53:35;;;;;;;12.38;2.53;;;;;;;;;;4997820;28;93516;-74
2023/04/07 10:56:02;;;;;;;7.33;2.63;;;;;;;;;;5010554;28;93184;-72
2023/04/07 10:58:29;;;;;;;16.17;5.03;;;;;;;;;;4998106;28;94858;-72
2023/04/07 11:00:55;;;;;;;13.73;3.20;;;;;;;;;;4993545;28;92455;-72
2023/04/07 11:03:23;;;;;;;17.77;3.55;;;;;;;;;;4993980;28;93701;-72
2023/04/07 11:05:50;;;;;;;13.90;3.08;;;;;;;;;;4992490;28;93644;-73
2023/04/07 11:08:35;;;;;;;18.15;3.03;;;;;;;;;;4991827;28;93036;-73
2023/04/07 11:11:02;;;;;;;12.07;3.03;;;;;;;;;;4992496;28;94939;-74
2023/04/07 11:13:38;;;;;;;13.30;3.25;;;;;;;;;;4994255;28;93573;-73
2023/04/07 11:16:05;;;;;;;17.33;3.03;;;;;;;;;;5014237;28;93313;-74
2023/04/07 11:18:31;;;;;;;14.50;2.80;;;;;;;;;;5006214;28;94509;-73
2023/04/07 11:20:58;;;;;;;13.55;2.63;;;;;;;;;;5009454;28;92464;-72
2023/04/07 11:23:25;;;;;;;18.10;3.28;;;;;;;;;;4996676;28;93816;-72
2023/04/07 11:25:57;;;;;;;11.00;2.90;;;;;;;;;;4995774;28;94567;-73
2023/04/07 11:28:24;;;;;;;26.52;4.28;;;;;;;;;;5000814;28;92534;-72
2023/04/07 11:30:52;;;;;;;11.65;3.53;;;;;;;;;;4996701;28;93080;-72
2023/04/07 11:33:20;;;;;;;11.43;3.13;;;;;;;;;;5000435;28;94399;-71
2023/04/07 11:35:47;;;;;;;14.43;3.80;;;;;;;;;;5013833;28;94869;-72
2023/04/07 11:38:15;;;;;;;12.02;3.67;;;;;;;;;;5002608;28;93708;-73
2023/04/07 11:40:41;;;;;;;22.83;4.25;;;;;;;;;;4995806;28;92498;-72
2023/04/07 11:43:27;;;;;;;18.08;3.80;;;;;;;;;;4996537;28;93223;-71
2023/04/07 11:46:03;;;;;;;11.68;4.03;;;;;;;;;;4997679;28;93455;-72
2023/04/07 11:48:30;;;;;;;16.05;4.03;;;;;;;;;;4992411;28;92499;-72
2023/04/07 11:50:57;;;;;;;13.48;3.63;;;;;;;;;;5016776;28;93557;-73
2023/04/07 11:53:26;;;;;;;17.30;4.00;;;;;;;;;;5013656;28;92641;-74
2023/04/07 11:56:02;;;;;;;15.15;4.15;;;;;;;;;;5014387;28;92510;-73
2023/04/07 11:58:28;;;;;;;18.90;4.25;;;;;;;;;;5016430;28;94268;-73
2023/04/07 12:01:02;;;;;;;12.77;3.85;;;;;;;;;;5013102;28;94922;-72
2023/04/07 12:03:28;;;;;;;10.82;3.67;;;;;;;;;;5002568;28;95670;-72
2023/04/07 12:05:55;;;;;;;10.30;3.50;;;;;;;;;;5009999;28;94370;-72
2023/04/07 12:08:35;;;;;;;15.63;3.58;;;;;;;;;;4999138;28;94187;-72
2023/04/07 12:11:03;;;;;;;17.75;4.20;;;;;;;;;;4998969;28;92868;-73
2023/04/07 12:13:30;;;;;;;15.43;3.65;;;;;;;;;;4994686;28;94869;-73
2023/04/07 12:15:59;;;;;;;16.73;4.07;;;;;;;;;;4995238;28;92434;-73
2023/04/07 12:18:27;;;;;;;17.40;3.90;;;;;;;;;;5004871;28;93342;-72
2023/04/07 12:20:53;;;;;;;14.55;4.03;;;;;;;;;;5013697;28;93571;-72
2023/04/07 12:23:21;;;;;;;14.50;3.90;;;;;;;;;;4996113;28;93290;-72
2023/04/07 12:25:47;;;;;;;13.90;3.10;;;;;;;;;;4993969;28;95987;-72
2023/04/07 12:28:14;;;;;;;13.38;4.00;;;;;;;;;;5002261;28;92458;-72
2023/04/07 12:30:41;;;;;;;13.45;3.08;;;;;;;;;;5014833;28;94805;-72
2023/04/07 12:33:07;;;;;;;11.65;2.78;;;;;;;;;;5014933;28;93545;-72
2023/04/07 12:35:34;;;;;;;12.13;3.13;;;;;;;;;;5016330;28;92448;-72
2023/04/07 12:38:00;;;;;;;9.70;3.03;;;;;;;;;;5001594;28;93137;-72
2023/04/07 12:40:28;;;;;;;12.77;3.08;;;;;;;;;;4995604;28;92753;-72
2023/04/07 12:42:57;;;;;;;8.27;2.47;;;;;;;;;;5011337;28;91797;-72
2023/04/07 12:45:23;;;;;;;7.43;2.42;;;;;;;;;;5014006;28;93180;-72
2023/04/07 12:47:50;;;;;;;10.52;2.15;;;;;;;;;;4998382;28;94359;-72
2023/04/07 12:50:16;;;;;;;10.52;2.00;;;;;;;;;;5000809;28;94912;-72
2023/04/07 12:52:42;;;;;;;7.72;2.45;;;;;;;;;;5008652;28;93457;-72
2023/04/07 12:55:09;;;;;;;7.45;1.80;;;;;;;;;;5015435;28;92542;-72
2023/04/07 12:57:36;;;;;;;9.43;1.98;;;;;;;;;;5006485;28;93795;-72
2023/04/07 13:00:03;;;;;;;6.43;1.83;;;;;;;;;;4995371;28;94413;-72
2023/04/07 13:02:29;;;;;;;9.52;2.47;;;;;;;;;;5015165;28;92445;-72
2023/04/07 13:04:56;;;;;;;10.57;2.10;;;;;;;;;;5015751;28;93143;-72
2023/04/07 13:07:22;;;;;;;11.07;2.55;;;;;;;;;;5007017;28;92457;-73
2023/04/07 13:09:49;;;;;;;9.85;2.40;;;;;;;;;;5000296;28;92423;-72
2023/04/07 13:12:15;;;;;;;4.35;1.65;;;;;;;;;;5015218;28;93444;-72
2023/04/07 13:14:41;;;;;;;8.93;2.53;;;;;;;;;;5013574;28;94805;-72
2023/04/07 13:17:22;;;;;;;10.23;2.42;;;;;;;;;;5000047;28;95550;-72
2023/04/07 13:19:49;;;;;;;8.45;2.90;;;;;;;;;;4994429;28;93504;-72
2023/04/07 13:22:16;;;;;;;9.63;2.53;;;;;;;;;;4995374;28;92383;-72
2023/04/07 13:24:47;;;;;;;13.32;2.55;;;;;;;;;;4996937;28;93428;-70
2023/04/07 13:27:13;;;;;;;12.93;3.25;;;;;;;;;;4996020;28;93410;-70
2023/04/07 13:29:39;;;;;;;9.35;2.95;;;;;;;;;;5007949;28;93214;-70
2023/04/07 13:32:06;;;;;;;10.35;3.47;;;;;;;;;;5015625;28;93647;-73
2023/04/07 13:34:33;;;;;;;5.10;2.63;;;;;;;;;;5010969;28;92477;-73
2023/04/07 13:37:01;;;;;;;8.90;3.00;;;;;;;;;;4977951;28;93705;-72
2023/04/07 13:39:27;;;;;;;10.43;3.00;;;;;;;;;;5001345;28;96756;-71
2023/04/07 13:41:54;;;;;;;15.43;4.18;;;;;;;;;;5012868;28;92547;-71
2023/04/07 13:44:21;;;;;;;5.68;2.90;;;;;;;;;;5004587;28;94268;-71
2023/04/07 13:46:47;;;;;;;11.15;3.50;;;;;;;;;;5006472;28;93577;-72
2023/04/07 13:49:14;;;;;;;13.80;3.70;;;;;;;;;;4994061;28;92425;-74
2023/04/07 13:51:40;;;;;;;14.40;4.22;;;;;;;;;;4997212;28;96132;-72
2023/04/07 13:54:07;;;;;;;20.35;4.10;;;;;;;;;;4995397;28;92455;-73
2023/04/07 13:56:37;;;;;;;14.20;3.13;;;;;;;;;;5001353;28;93445;-73
2023/04/07 13:59:05;;;;;;;16.00;4.25;;;;;;;;;;4993972;28;93493;-73
2023/04/07 14:01:32;;;;;;;13.20;3.47;;;;;;;;;;4994445;28;92393;-73
2023/04/07 14:03:59;;;;;;;16.50;3.55;;;;;;;;;;4985562;28;95557;-73
2023/04/07 14:06:26;;;;;;;10.40;3.92;;;;;;;;;;4996274;28;93651;-73
2023/04/07 14:08:52;;;;;;;8.63;3.65;;;;;;;;;;4996701;28;92517;-74
2023/04/07 14:11:20;;;;;;;14.32;3.75;;;;;;;;;;5001642;28;94096;-73
2023/04/07 14:13:47;;;;;;;12.27;3.60;;;;;;;;;;5008655;28;93146;-74
2023/04/07 14:16:16;;;;;;;9.48;3.03;;;;;;;;;;5008579;28;92568;-74
2023/04/07 14:18:42;;;;;;;11.43;3.03;;;;;;;;;;4994422;28;93477;-73
2023/04/07 14:21:08;;;;;;;8.40;2.92;;;;;;;;;;5004131;28;91686;-73
2023/04/07 14:23:36;;;;;;;16.08;3.55;;;;;;;;;;4991898;28;92625;-73
2023/04/07 14:26:03;;;;;;;17.33;3.03;;;;;;;;;;5009027;28;93779;-73
2023/04/07 14:28:29;;;;;;;11.88;2.47;;;;;;;;;;5012569;28;94848;-73
2023/04/07 14:30:55;;;;;;;11.82;3.17;;;;;;;;;;5017134;28;95898;-75
2023/04/07 14:33:22;;;;;;;17.27;3.22;;;;;;;;;;5006091;28;92818;-73